createdAt,value
2018-07-17T00:01:45.254Z,14.10
2018-07-17T00:04:14.314Z,12.10
2018-07-17T00:06:43.402Z,14.90
2018-07-17T00:09:13.230Z,16.50
2018-07-17T00:11:42.306Z,13.57
2018-07-17T00:14:11.387Z,10.93
2018-07-17T00:16:40.469Z,13.60
2018-07-17T00:19:09.839Z,12.47
2018-07-17T00:21:39.030Z,10.43
2018-07-17T00:24:09.782Z,13.10
2018-07-17T00:26:39.075Z,13.17
2018-07-17T00:29:09.786Z,12.83
2018-07-17T00:31:38.883Z,12.93
2018-07-17T00:34:07.992Z,12.87
2018-07-17T00:36:37.080Z,11.13
2018-07-17T00:39:06.918Z,11.67
2018-07-17T00:41:36.019Z,15.50
2018-07-17T00:44:05.038Z,11.67
2018-07-17T00:46:34.109Z,12.73
2018-07-17T00:49:03.225Z,17.17
2018-07-17T00:51:32.287Z,10.87
2018-07-17T00:54:01.507Z,10.17
2018-07-17T00:56:31.274Z,16.90
2018-07-17T00:59:01.188Z,13.80
2018-07-17T01:01:40.380Z,19.30
2018-07-17T01:04:14.598Z,11.10
2018-07-17T01:06:49.031Z,12.33
2018-07-17T01:09:23.349Z,14.50
2018-07-17T01:11:57.653Z,12.00
2018-07-17T01:15:33.734Z,11.57
2018-07-17T01:18:02.550Z,11.23
2018-07-17T01:20:31.695Z,16.10
2018-07-17T01:23:00.899Z,12.03
2018-07-17T01:25:30.007Z,12.60
2018-07-17T01:27:59.431Z,13.77
2018-07-17T01:30:28.536Z,15.10
2018-07-17T01:32:57.662Z,14.40
2018-07-17T01:35:26.785Z,13.27
2018-07-17T01:37:55.882Z,17.87
2018-07-17T01:40:24.955Z,15.47
2018-07-17T01:42:54.623Z,14.30
2018-07-17T01:45:24.006Z,15.80
2018-07-17T01:47:53.083Z,17.90
2018-07-17T01:50:22.253Z,14.20
2018-07-17T01:52:51.350Z,17.50
2018-07-17T01:55:20.782Z,15.33
2018-07-17T01:57:50.317Z,11.67
2018-07-17T02:00:20.167Z,13.53
2018-07-17T02:02:49.574Z,16.17
2018-07-17T02:05:18.818Z,12.67
2018-07-17T02:07:48.062Z,14.47
2018-07-17T02:10:16.870Z,15.70
2018-07-17T02:12:46.047Z,13.80
2018-07-17T02:15:15.087Z,14.47
2018-07-17T02:17:44.204Z,12.27
2018-07-17T02:20:13.318Z,13.00
2018-07-17T02:22:42.802Z,12.83
2018-07-17T02:25:12.850Z,15.30
2018-07-17T02:27:41.947Z,12.67
2018-07-17T02:30:11.031Z,15.00
2018-07-17T02:32:40.187Z,14.10
2018-07-17T02:35:09.363Z,14.00
2018-07-17T02:37:38.555Z,15.03
2018-07-17T02:40:08.199Z,14.07
2018-07-17T02:42:37.340Z,14.80
2018-07-17T02:45:06.699Z,12.77
2018-07-17T02:47:35.818Z,12.67
2018-07-17T02:50:04.970Z,17.53
2018-07-17T02:52:34.096Z,15.23
2018-07-17T02:55:03.235Z,16.37
2018-07-17T02:57:32.356Z,13.93
2018-07-17T03:00:01.228Z,12.10
2018-07-17T03:02:30.348Z,13.37
2018-07-17T03:04:59.479Z,16.40
2018-07-17T03:07:29.336Z,12.13
2018-07-17T03:09:58.475Z,14.03
2018-07-17T03:12:27.566Z,18.23
2018-07-17T03:14:56.671Z,12.90
2018-07-17T03:17:25.799Z,14.00
2018-07-17T03:19:54.959Z,16.47
2018-07-17T03:22:24.086Z,13.23
2018-07-17T03:24:53.191Z,12.83
2018-07-17T03:27:22.284Z,11.30
2018-07-17T03:29:51.766Z,15.70
2018-07-17T03:32:20.846Z,15.30
2018-07-17T03:34:49.930Z,12.17
2018-07-17T03:37:19.058Z,15.97
2018-07-17T03:39:48.151Z,17.63
2018-07-17T03:42:17.239Z,12.43
2018-07-17T03:44:47.143Z,16.00
2018-07-17T03:47:16.226Z,17.00
2018-07-17T03:49:45.314Z,19.73
2018-07-17T03:52:14.452Z,14.73
2018-07-17T03:54:43.590Z,14.30
2018-07-17T03:57:12.702Z,12.90
2018-07-17T03:59:41.975Z,18.70
2018-07-17T04:02:12.962Z,12.03
2018-07-17T04:04:42.247Z,14.97
2018-07-17T04:07:12.154Z,13.80
2018-07-17T04:09:41.267Z,14.00
2018-07-17T04:12:10.359Z,16.53
2018-07-17T04:14:39.462Z,13.07
2018-07-17T04:17:08.610Z,15.00
2018-07-17T04:19:37.783Z,16.33
2018-07-17T04:22:07.111Z,13.53
2018-07-17T04:24:36.227Z,14.40
2018-07-17T04:27:05.891Z,16.33
2018-07-17T04:29:35.006Z,12.70
2018-07-17T04:32:04.927Z,14.13
2018-07-17T04:34:35.007Z,16.07
2018-07-17T04:37:04.723Z,12.17
2018-07-17T04:39:33.863Z,10.73
2018-07-17T04:42:02.967Z,12.67
2018-07-17T04:44:32.886Z,12.57
2018-07-17T04:47:02.042Z,15.00
2018-07-17T04:49:31.127Z,16.47
2018-07-17T04:52:00.898Z,16.33
2018-07-17T04:54:29.998Z,11.40
2018-07-17T04:56:59.178Z,10.30
2018-07-17T04:59:29.366Z,10.80
2018-07-17T05:01:58.697Z,11.60
2018-07-17T05:04:27.822Z,10.90
2018-07-17T05:06:57.147Z,10.33
2018-07-17T05:09:26.835Z,12.47
2018-07-17T05:11:56.183Z,17.77
2018-07-17T05:14:25.546Z,12.33
2018-07-17T05:16:54.786Z,9.90
2018-07-17T05:19:23.980Z,14.37
2018-07-17T05:21:53.063Z,10.30
2018-07-17T05:24:22.154Z,10.27
2018-07-17T05:26:51.275Z,10.60
2018-07-17T05:29:21.526Z,10.20
2018-07-17T05:31:50.607Z,10.83
2018-07-17T05:34:23.138Z,10.50
2018-07-17T05:36:54.022Z,9.13
2018-07-17T05:39:23.194Z,10.50
2018-07-17T05:41:52.662Z,11.40
2018-07-17T05:44:21.774Z,10.70
2018-07-17T05:46:51.680Z,9.63
2018-07-17T05:49:21.722Z,12.07
2018-07-17T05:51:50.407Z,19.20
2018-07-17T05:54:19.695Z,10.53
2018-07-17T05:56:48.375Z,14.13
2018-07-17T05:59:17.495Z,9.90
2018-07-17T06:01:46.734Z,9.30
2018-07-17T06:04:16.110Z,8.77
2018-07-17T06:06:45.506Z,10.80
2018-07-17T06:09:15.128Z,16.70
2018-07-17T06:11:44.204Z,10.40
2018-07-17T06:14:13.342Z,10.10
2018-07-17T06:16:42.446Z,11.23
2018-07-17T06:19:11.514Z,10.73
2018-07-17T06:21:40.635Z,10.40
2018-07-17T06:24:09.730Z,9.53
2018-07-17T06:26:38.850Z,13.30
2018-07-17T06:29:07.546Z,12.93
2018-07-17T06:31:36.978Z,11.40
2018-07-17T06:34:06.358Z,12.13
2018-07-17T06:36:35.434Z,8.47
2018-07-17T06:39:06.718Z,15.90
2018-07-17T06:41:35.802Z,12.40
2018-07-17T06:44:05.384Z,9.37
2018-07-17T06:46:34.631Z,10.00
2018-07-17T06:49:03.746Z,14.10
2018-07-17T06:51:32.867Z,10.03
2018-07-17T06:54:01.990Z,14.00
2018-07-17T06:56:31.111Z,9.93
2018-07-17T06:59:00.194Z,12.80
2018-07-17T07:01:29.179Z,8.53
2018-07-17T07:03:58.292Z,14.50
2018-07-17T07:06:27.842Z,14.47
2018-07-17T07:08:57.366Z,11.30
2018-07-17T07:11:26.459Z,14.80
2018-07-17T07:13:55.550Z,11.63
2018-07-17T07:16:24.688Z,9.70
2018-07-17T07:18:53.791Z,10.23
2018-07-17T07:21:23.092Z,13.00
2018-07-17T07:23:52.216Z,11.80
2018-07-17T07:26:20.941Z,15.73
2018-07-17T07:28:50.031Z,13.33
2018-07-17T07:31:19.106Z,8.90
2018-07-17T07:33:48.230Z,11.33
2018-07-17T07:36:17.354Z,14.00
2018-07-17T07:38:46.818Z,9.70
2018-07-17T07:41:15.915Z,9.37
2018-07-17T07:43:45.022Z,10.93
2018-07-17T07:46:14.141Z,10.03
2018-07-17T07:48:44.438Z,9.90
2018-07-17T07:51:13.762Z,14.90
2018-07-17T07:53:43.059Z,18.13
2018-07-17T07:56:11.791Z,16.33
2018-07-17T07:58:40.972Z,10.20
2018-07-17T08:01:10.258Z,9.67
2018-07-17T08:03:39.566Z,10.93
2018-07-17T08:06:08.234Z,10.50
2018-07-17T08:08:37.827Z,10.20
2018-07-17T08:11:06.983Z,10.33
2018-07-17T08:13:36.098Z,13.30
2018-07-17T08:16:05.174Z,10.87
2018-07-17T08:18:34.673Z,9.27
2018-07-17T08:21:03.772Z,8.87
2018-07-17T08:23:32.830Z,12.10
2018-07-17T08:26:02.339Z,8.20
2018-07-17T08:28:31.451Z,15.33
2018-07-17T08:31:00.920Z,9.50
2018-07-17T08:33:30.251Z,8.40
2018-07-17T08:35:59.354Z,12.67
2018-07-17T08:38:28.490Z,9.83
2018-07-17T08:40:57.562Z,8.67
2018-07-17T08:43:26.704Z,9.00
2018-07-17T08:45:56.003Z,10.80
2018-07-17T08:48:25.142Z,14.00
2018-07-17T08:50:54.215Z,7.33
2018-07-17T08:53:23.310Z,8.13
2018-07-17T08:55:52.435Z,7.63
2018-07-17T08:58:21.538Z,11.00
2018-07-17T09:00:51.118Z,8.30
2018-07-17T09:03:20.710Z,8.37
2018-07-17T09:05:49.826Z,10.00
2018-07-17T09:08:18.872Z,9.53
2018-07-17T09:10:48.142Z,8.33
2018-07-17T09:13:17.235Z,10.10
2018-07-17T09:15:46.352Z,12.87
2018-07-17T09:18:15.499Z,8.07
2018-07-17T09:20:44.634Z,11.83
2018-07-17T09:23:13.779Z,10.30
2018-07-17T09:25:42.975Z,8.17
2018-07-17T09:28:12.084Z,8.17
2018-07-17T09:30:46.340Z,9.57
2018-07-17T09:33:16.715Z,7.57
2018-07-17T09:35:45.802Z,7.93
2018-07-17T09:38:14.934Z,8.90
2018-07-17T09:40:44.058Z,9.20
2018-07-17T09:43:13.138Z,10.13
2018-07-17T09:45:42.319Z,9.20
2018-07-17T09:48:11.754Z,7.30
2018-07-17T09:50:41.138Z,9.90
2018-07-17T09:53:10.842Z,8.93
2018-07-17T09:55:40.214Z,8.83
2018-07-17T09:58:09.519Z,10.43
2018-07-17T10:00:44.414Z,8.60
2018-07-17T10:03:13.658Z,9.00
2018-07-17T10:05:43.083Z,8.10
2018-07-17T10:08:12.201Z,8.10
2018-07-17T10:10:41.379Z,13.60
2018-07-17T10:13:10.890Z,8.80
2018-07-17T10:15:40.016Z,8.33
2018-07-17T10:18:09.175Z,7.60
2018-07-17T10:20:38.298Z,12.70
2018-07-17T10:23:07.374Z,8.00
2018-07-17T10:25:36.675Z,7.50
2018-07-17T10:28:05.847Z,7.40
2018-07-17T10:30:34.906Z,10.80
2018-07-17T10:33:04.027Z,11.60
2018-07-17T10:35:33.214Z,9.67
2018-07-17T10:38:03.171Z,7.43
2018-07-17T10:40:32.980Z,7.00
2018-07-17T10:43:02.330Z,12.63
2018-07-17T10:45:32.010Z,11.87
2018-07-17T10:48:01.151Z,9.20
2018-07-17T10:50:30.710Z,7.70
2018-07-17T10:53:00.630Z,9.93
2018-07-17T10:55:29.866Z,6.83
2018-07-17T10:57:58.962Z,6.30
2018-07-17T11:00:28.093Z,11.97
2018-07-17T11:02:57.261Z,10.70
2018-07-17T11:05:26.515Z,7.57
2018-07-17T11:07:57.499Z,7.20
2018-07-17T11:10:26.527Z,7.10
2018-07-17T11:12:56.055Z,13.20
2018-07-17T11:15:25.787Z,6.90
2018-07-17T11:17:54.864Z,8.50
2018-07-17T11:20:23.986Z,11.50
2018-07-17T11:22:53.311Z,6.83
2018-07-17T11:25:22.398Z,6.77
2018-07-17T11:27:51.535Z,9.80
2018-07-17T11:30:20.646Z,7.43
2018-07-17T11:32:49.826Z,8.07
2018-07-17T11:35:19.590Z,6.87
2018-07-17T11:37:48.703Z,7.73
2018-07-17T11:40:17.827Z,8.27
2018-07-17T11:42:47.003Z,8.63
2018-07-17T11:45:16.830Z,6.70
2018-07-17T11:47:45.934Z,7.00
2018-07-17T11:50:15.054Z,5.63
2018-07-17T11:52:44.166Z,5.97
2018-07-17T11:55:13.294Z,7.90
2018-07-17T11:57:42.828Z,7.77
2018-07-17T12:00:11.949Z,8.63
2018-07-17T12:02:41.042Z,5.17
2018-07-17T12:05:09.787Z,6.50
2018-07-17T12:07:38.991Z,10.03
2018-07-17T12:10:08.163Z,6.53
2018-07-17T12:12:37.863Z,8.53
2018-07-17T12:15:07.398Z,8.90
2018-07-17T12:17:36.644Z,7.40
2018-07-17T12:20:06.319Z,12.80
2018-07-17T12:22:35.959Z,7.97
2018-07-17T12:25:05.124Z,7.70
2018-07-17T12:27:34.355Z,6.60
2018-07-17T12:30:03.629Z,6.17
2018-07-17T12:32:32.828Z,7.13
2018-07-17T12:35:02.344Z,6.90
2018-07-17T12:37:32.082Z,7.20
2018-07-17T12:40:01.880Z,10.07
2018-07-17T12:42:31.013Z,6.43
2018-07-17T12:45:00.183Z,9.60
2018-07-17T12:47:29.277Z,7.87
2018-07-17T12:49:58.181Z,7.13
2018-07-17T12:52:27.283Z,6.07
2018-07-17T12:54:56.375Z,8.03
2018-07-17T12:57:25.530Z,8.93
2018-07-17T12:59:54.673Z,6.67
2018-07-17T13:02:23.792Z,8.27
2018-07-17T13:04:53.660Z,10.27
2018-07-17T13:07:22.934Z,5.20
2018-07-17T13:09:52.032Z,8.87
2018-07-17T13:12:21.188Z,5.73
2018-07-17T13:14:50.306Z,7.20
2018-07-17T13:17:19.435Z,7.17
2018-07-17T13:19:48.598Z,6.53
2018-07-17T13:22:17.719Z,7.67
2018-07-17T13:24:46.868Z,6.73
2018-07-17T13:27:16.080Z,6.23
2018-07-17T13:29:45.207Z,6.80
2018-07-17T13:32:14.351Z,9.60
2018-07-17T13:34:43.622Z,6.07
2018-07-17T13:37:12.747Z,5.30
2018-07-17T13:39:41.860Z,5.87
2018-07-17T13:42:11.011Z,10.47
2018-07-17T13:44:40.117Z,5.13
2018-07-17T13:47:09.200Z,6.30
2018-07-17T13:49:39.024Z,7.07
2018-07-17T13:52:08.141Z,4.87
2018-07-17T13:54:38.019Z,9.03
2018-07-17T13:57:07.764Z,5.33
2018-07-17T13:59:38.265Z,7.07
2018-07-17T14:02:07.832Z,7.93
2018-07-17T14:04:38.438Z,8.20
2018-07-17T14:07:08.558Z,17.40
2018-07-17T14:09:38.302Z,8.17
2018-07-17T14:12:07.992Z,11.27
2018-07-17T14:14:37.478Z,17.07
2018-07-17T14:17:06.661Z,12.53
2018-07-17T14:19:35.863Z,12.80
2018-07-17T14:22:05.371Z,9.57
2018-07-17T14:24:34.882Z,7.27
2018-07-17T14:27:03.635Z,9.50
2018-07-17T14:29:33.680Z,9.00
2018-07-17T14:32:02.906Z,10.23
2018-07-17T14:34:32.081Z,8.57
2018-07-17T14:37:01.615Z,5.67
2018-07-17T14:39:30.823Z,7.67
2018-07-17T14:42:01.207Z,5.67
2018-07-17T14:44:30.714Z,10.13
2018-07-17T14:47:00.048Z,7.20
2018-07-17T14:49:30.511Z,6.67
2018-07-17T14:51:59.871Z,6.57
2018-07-17T14:54:29.195Z,5.50
2018-07-17T14:56:58.599Z,5.73
2018-07-17T14:59:27.918Z,5.57
2018-07-17T15:01:56.990Z,7.80
2018-07-17T15:04:26.611Z,4.60
2018-07-17T15:06:55.965Z,6.63
2018-07-17T15:09:24.684Z,12.20
2018-07-17T15:11:53.834Z,6.47
2018-07-17T15:14:23.522Z,5.30
2018-07-17T15:16:52.730Z,7.83
2018-07-17T15:19:22.354Z,6.43
2018-07-17T15:21:51.585Z,5.67
2018-07-17T15:24:21.355Z,5.00
2018-07-17T15:26:51.624Z,6.20
2018-07-17T15:29:20.740Z,5.73
2018-07-17T15:31:50.133Z,6.33
2018-07-17T15:34:19.246Z,6.27
2018-07-17T15:36:48.615Z,5.63
2018-07-17T15:39:18.386Z,5.20
2018-07-17T15:41:48.273Z,7.63
2018-07-17T15:44:17.815Z,5.30
2018-07-17T15:46:47.305Z,4.70
2018-07-17T15:49:17.087Z,4.80
2018-07-17T15:51:46.910Z,6.50
2018-07-17T15:54:17.138Z,5.03
2018-07-17T15:56:46.298Z,4.90
2018-07-17T15:59:16.194Z,5.63
2018-07-17T16:01:46.846Z,6.70
2018-07-17T16:04:16.600Z,4.90
2018-07-17T16:06:46.129Z,6.70
2018-07-17T16:09:15.627Z,8.63
2018-07-17T16:11:44.748Z,6.13
2018-07-17T16:14:14.109Z,5.50
2018-07-17T16:16:42.934Z,8.20
2018-07-17T16:19:12.068Z,7.00
2018-07-17T16:21:41.187Z,10.63
2018-07-17T16:24:11.052Z,8.17
2018-07-17T16:26:40.215Z,6.47
2018-07-17T16:29:09.247Z,10.07
2018-07-17T16:31:38.388Z,5.60
2018-07-17T16:34:07.595Z,13.13
2018-07-17T16:36:36.815Z,7.90
2018-07-17T16:39:08.276Z,7.50
2018-07-17T16:41:37.437Z,5.03
2018-07-17T16:44:06.546Z,8.00
2018-07-17T16:46:35.642Z,11.00
2018-07-17T16:49:04.807Z,8.67
2018-07-17T16:51:33.959Z,5.80
2018-07-17T16:54:03.533Z,7.37
2018-07-17T16:56:32.554Z,9.40
2018-07-17T16:59:01.670Z,7.10
2018-07-17T17:01:30.763Z,8.27
2018-07-17T17:03:59.871Z,6.77
2018-07-17T17:06:28.963Z,13.70
2018-07-17T17:08:58.883Z,5.10
2018-07-17T17:11:28.067Z,7.87
2018-07-17T17:13:58.354Z,7.30
2018-07-17T17:16:27.703Z,8.57
2018-07-17T17:18:56.799Z,6.93
2018-07-17T17:21:25.945Z,5.90
2018-07-17T17:23:55.167Z,9.70
2018-07-17T17:26:24.183Z,9.37
2018-07-17T17:28:53.286Z,7.40
2018-07-17T17:31:22.414Z,9.53
2018-07-17T17:33:51.510Z,5.67
2018-07-17T17:36:21.369Z,7.17
2018-07-17T17:38:50.469Z,10.40
2018-07-17T17:41:19.534Z,10.67
2018-07-17T17:43:49.466Z,12.47
2018-07-17T17:46:18.631Z,9.23
2018-07-17T17:48:48.190Z,7.80
2018-07-17T17:51:17.354Z,8.80
2018-07-17T17:53:46.446Z,7.23
2018-07-17T17:56:16.715Z,6.90
2018-07-17T17:58:46.593Z,6.53
2018-07-17T18:01:16.166Z,10.03
2018-07-17T18:03:45.295Z,6.70
2018-07-17T18:06:14.531Z,11.20
2018-07-17T18:08:45.047Z,7.80
2018-07-17T18:11:14.920Z,6.57
2018-07-17T18:13:45.300Z,7.10
2018-07-17T18:16:14.487Z,7.07
2018-07-17T18:18:43.692Z,7.60
2018-07-17T18:21:13.199Z,7.60
2018-07-17T18:23:42.368Z,9.00
2018-07-17T18:26:11.537Z,7.60
2018-07-17T18:28:40.622Z,9.93
2018-07-17T18:31:09.829Z,8.30
2018-07-17T18:33:39.006Z,8.83
2018-07-17T18:36:08.164Z,8.30
2018-07-17T18:38:37.431Z,11.80
2018-07-17T18:41:06.532Z,8.07
2018-07-17T18:43:35.665Z,8.37
2018-07-17T18:46:04.903Z,7.50
2018-07-17T18:48:34.108Z,8.13
2018-07-17T18:51:03.238Z,9.40
2018-07-17T18:53:33.043Z,10.00
2018-07-17T18:56:02.119Z,11.20
2018-07-17T18:58:31.241Z,10.23
2018-07-17T19:01:02.063Z,11.13
2018-07-17T19:03:31.182Z,6.80
2018-07-17T19:06:00.276Z,7.40
2018-07-17T19:08:29.388Z,7.53
2018-07-17T19:10:58.518Z,6.33
2018-07-17T19:13:28.346Z,7.17
2018-07-17T19:15:58.827Z,7.13
2018-07-17T19:18:28.282Z,6.77
2018-07-17T19:20:57.527Z,6.97
2018-07-17T19:23:26.822Z,4.70
2018-07-17T19:25:56.099Z,6.07
2018-07-17T19:28:26.055Z,6.87
2018-07-17T19:30:55.310Z,6.10
2018-07-17T19:33:24.113Z,14.33
2018-07-17T19:35:54.999Z,6.53
2018-07-17T19:38:23.745Z,5.83
2018-07-17T19:40:52.858Z,7.33
2018-07-17T19:43:21.980Z,5.23
2018-07-17T19:45:51.462Z,6.23
2018-07-17T19:48:21.539Z,4.97
2018-07-17T19:50:51.930Z,5.30
2018-07-17T19:53:21.962Z,10.43
2018-07-17T19:55:50.707Z,6.60
2018-07-17T19:58:19.838Z,8.53
2018-07-17T20:00:49.334Z,6.30
2018-07-17T20:03:18.486Z,6.80
2018-07-17T20:05:47.578Z,5.10
2018-07-17T20:08:16.794Z,5.10
2018-07-17T20:10:46.878Z,5.40
2018-07-17T20:13:16.015Z,4.53
2018-07-17T20:15:45.215Z,4.47
2018-07-17T20:18:15.104Z,6.93
2018-07-17T20:20:44.586Z,5.93
2018-07-17T20:23:14.575Z,7.23
2018-07-17T20:25:43.726Z,6.90
2018-07-17T20:28:13.403Z,6.50
2018-07-17T20:30:42.495Z,7.43
2018-07-17T20:33:11.737Z,6.30
2018-07-17T20:35:40.882Z,7.77
2018-07-17T20:38:09.979Z,6.63
2018-07-17T20:40:39.088Z,8.93
2018-07-17T20:43:08.203Z,9.40
2018-07-17T20:45:38.292Z,7.73
2018-07-17T20:48:07.492Z,6.47
2018-07-17T20:50:37.043Z,6.07
2018-07-17T20:53:06.701Z,5.40
2018-07-17T20:55:35.729Z,6.40
2018-07-17T20:58:05.279Z,6.20
2018-07-17T21:00:34.658Z,5.80
2018-07-17T21:03:04.652Z,7.10
2018-07-17T21:05:33.801Z,6.17
2018-07-17T21:08:02.982Z,5.80
2018-07-17T21:10:32.198Z,6.50
2018-07-17T21:13:01.422Z,7.30
2018-07-17T21:15:31.271Z,6.53
2018-07-17T21:18:00.444Z,10.37
2018-07-17T21:20:30.363Z,6.40
2018-07-17T21:22:59.587Z,5.20
2018-07-17T21:25:28.911Z,5.67
2018-07-17T21:27:58.352Z,6.80
2018-07-17T21:30:28.266Z,9.33
2018-07-17T21:32:58.149Z,5.33
2018-07-17T21:35:27.566Z,6.30
2018-07-17T21:37:57.332Z,5.40
2018-07-17T21:40:26.890Z,6.77
2018-07-17T21:42:55.519Z,8.10
2018-07-17T21:45:25.600Z,8.77
2018-07-17T21:47:54.798Z,7.93
2018-07-17T21:50:24.296Z,6.57
2018-07-17T21:52:53.431Z,6.87
2018-07-17T21:55:22.551Z,5.87
2018-07-17T21:57:51.635Z,6.67
2018-07-17T22:00:20.738Z,7.67
2018-07-17T22:02:50.724Z,9.60
2018-07-17T22:05:19.874Z,6.67
2018-07-17T22:07:48.976Z,6.23
2018-07-17T22:10:18.047Z,7.90
2018-07-17T22:12:48.403Z,8.23
2018-07-17T22:15:17.504Z,5.60
2018-07-17T22:17:46.806Z,5.47
2018-07-17T22:20:16.006Z,6.03
2018-07-17T22:22:45.105Z,7.37
2018-07-17T22:25:14.198Z,7.30
2018-07-17T22:27:43.799Z,9.27
2018-07-17T22:30:12.907Z,6.97
2018-07-17T22:32:42.030Z,8.33
2018-07-17T22:35:11.338Z,6.50
2018-07-17T22:37:40.434Z,9.73
2018-07-17T22:40:09.552Z,7.83
2018-07-17T22:42:38.414Z,5.80
2018-07-17T22:45:07.375Z,7.33
2018-07-17T22:47:36.767Z,7.00
2018-07-17T22:50:05.875Z,6.70
2018-07-17T22:52:34.973Z,8.20
2018-07-17T22:55:04.127Z,9.67
2018-07-17T22:57:33.246Z,15.17
2018-07-17T23:00:02.363Z,7.03
2018-07-17T23:02:32.346Z,6.57
2018-07-17T23:05:02.207Z,8.17
2018-07-17T23:07:30.950Z,6.27
2018-07-17T23:10:00.080Z,11.07
2018-07-17T23:12:29.374Z,6.60
2018-07-17T23:14:58.643Z,8.40
2018-07-17T23:17:27.718Z,10.20
2018-07-17T23:19:57.863Z,10.60
2018-07-17T23:22:40.018Z,9.63
2018-07-17T23:25:09.678Z,14.47
2018-07-17T23:27:38.769Z,6.17
2018-07-17T23:30:07.894Z,7.53
2018-07-17T23:32:37.010Z,7.50
2018-07-17T23:35:06.091Z,6.90
2018-07-17T23:37:35.991Z,7.63
2018-07-17T23:40:05.163Z,11.13
2018-07-17T23:42:34.259Z,7.80
2018-07-17T23:45:04.094Z,7.07
2018-07-17T23:47:33.181Z,8.80
2018-07-17T23:50:02.287Z,9.60
2018-07-17T23:52:31.428Z,7.70
2018-07-17T23:55:01.305Z,8.33
2018-07-17T23:57:30.419Z,7.57
2018-07-17T23:59:59.591Z,10.43
